createdAt,value
2019-06-01T00:01:27.559Z,5.33
2019-06-01T00:04:29.838Z,5.70
2019-06-01T00:07:32.124Z,5.53
2019-06-01T00:10:34.335Z,5.90
2019-06-01T00:13:36.560Z,5.13
2019-06-01T00:16:39.951Z,5.30
2019-06-01T00:19:41.991Z,5.40
2019-06-01T00:22:43.351Z,5.33
2019-06-01T00:25:46.639Z,4.90
2019-06-01T00:28:47.937Z,5.60
2019-06-01T00:31:50.045Z,5.57
2019-06-01T00:34:52.291Z,5.37
2019-06-01T00:37:54.502Z,5.30
2019-06-01T00:40:56.768Z,5.47
2019-06-01T00:43:59.002Z,4.90
2019-06-01T00:47:01.241Z,5.10
2019-06-01T00:50:03.717Z,5.00
2019-06-01T00:53:06.029Z,5.40
2019-06-01T00:56:08.297Z,5.33
2019-06-01T00:59:10.578Z,4.87
2019-06-01T01:02:12.833Z,5.20
2019-06-01T01:05:16.106Z,4.60
2019-06-01T01:08:18.347Z,4.97
2019-06-01T01:11:20.585Z,5.10
2019-06-01T01:14:22.807Z,4.33
2019-06-01T01:17:25.107Z,4.80
2019-06-01T01:20:27.388Z,4.67
2019-06-01T01:23:29.685Z,4.73
2019-06-01T01:26:31.925Z,5.37
2019-06-01T01:29:34.176Z,4.90
2019-06-01T01:32:36.440Z,5.43
2019-06-01T01:35:38.768Z,4.70
2019-06-01T01:38:41.019Z,5.83
2019-06-01T01:41:43.236Z,4.97
2019-06-01T01:44:45.484Z,4.60
2019-06-01T01:47:49.375Z,4.37
2019-06-01T01:50:50.274Z,4.93
2019-06-01T01:53:52.987Z,4.43
2019-06-01T01:56:54.508Z,4.73
2019-06-01T01:59:57.404Z,4.67
2019-06-01T02:03:00.098Z,4.23
2019-06-01T02:06:01.232Z,4.80
2019-06-01T02:09:06.532Z,4.33
2019-06-01T02:12:08.781Z,4.50
2019-06-01T02:15:11.059Z,4.50
2019-06-01T02:18:13.358Z,4.10
2019-06-01T02:21:15.590Z,4.20
2019-06-01T02:24:17.851Z,3.70
2019-06-01T02:27:20.107Z,4.03
2019-06-01T02:30:22.381Z,4.30
2019-06-01T02:33:24.633Z,4.30
2019-06-01T02:36:26.904Z,4.13
2019-06-01T02:39:29.210Z,3.83
2019-06-01T02:42:31.520Z,3.40
2019-06-01T02:45:33.768Z,3.73
2019-06-01T02:48:36.008Z,3.87
2019-06-01T02:51:38.231Z,4.80
2019-06-01T02:54:40.488Z,5.97
2019-06-01T02:57:42.780Z,4.63
2019-06-01T03:01:07.912Z,3.90
2019-06-01T03:04:10.247Z,3.37
2019-06-01T03:07:12.581Z,3.50
2019-06-01T03:10:14.892Z,3.77
2019-06-01T03:13:17.173Z,3.50
2019-06-01T03:16:19.519Z,3.80
2019-06-01T03:19:22.981Z,3.30
2019-06-01T03:22:25.234Z,3.60
2019-06-01T03:25:27.899Z,3.30
2019-06-01T03:28:30.169Z,3.73
2019-06-01T03:31:32.472Z,3.20
2019-06-01T03:34:34.718Z,3.50
2019-06-01T03:37:36.975Z,3.70
2019-06-01T03:40:39.208Z,3.20
2019-06-01T03:43:41.448Z,3.50
2019-06-01T03:46:43.695Z,3.10
2019-06-01T03:49:45.953Z,3.33
2019-06-01T03:52:48.180Z,3.50
2019-06-01T03:55:50.411Z,3.40
2019-06-01T03:58:52.803Z,3.17
2019-06-01T04:01:54.995Z,3.40
2019-06-01T04:04:57.192Z,3.00
2019-06-01T04:07:59.398Z,2.83
2019-06-01T04:11:01.686Z,2.70
2019-06-01T04:14:05.611Z,3.07
2019-06-01T04:17:08.149Z,2.90
2019-06-01T04:20:10.182Z,2.77
2019-06-01T04:23:12.401Z,2.67
2019-06-01T04:26:13.797Z,3.20
2019-06-01T04:29:16.050Z,3.40
2019-06-01T04:32:18.267Z,3.30
2019-06-01T04:35:20.527Z,3.47
2019-06-01T04:38:22.758Z,3.33
2019-06-01T04:41:24.983Z,3.10
2019-06-01T04:44:27.226Z,3.90
2019-06-01T04:47:29.442Z,3.93
2019-06-01T04:50:31.841Z,4.20
2019-06-01T04:53:34.096Z,4.00
2019-06-01T04:56:36.318Z,3.67
2019-06-01T04:59:38.532Z,3.57
2019-06-01T05:02:40.930Z,3.70
2019-06-01T05:05:43.176Z,3.67
2019-06-01T05:08:45.386Z,3.47
2019-06-01T05:11:47.698Z,2.90
2019-06-01T05:14:49.933Z,3.00
2019-06-01T05:17:52.231Z,3.00
2019-06-01T05:20:54.491Z,2.57
2019-06-01T05:23:56.719Z,2.60
2019-06-01T05:26:58.948Z,2.60
2019-06-01T05:30:01.241Z,2.53
2019-06-01T05:33:03.525Z,2.60
2019-06-01T05:36:05.818Z,2.67
2019-06-01T05:39:08.298Z,2.30
2019-06-01T05:42:10.698Z,2.23
2019-06-01T05:45:13.040Z,2.40
2019-06-01T05:48:20.707Z,2.00
2019-06-01T05:51:18.569Z,2.10
2019-06-01T05:54:19.443Z,2.23
2019-06-01T05:57:23.169Z,2.23
2019-06-01T06:00:35.495Z,2.20
2019-06-01T06:03:40.546Z,1.93
2019-06-01T06:06:39.936Z,1.90
2019-06-01T06:09:42.257Z,1.70
2019-06-01T06:12:44.539Z,1.93
2019-06-01T06:15:46.764Z,2.00
2019-06-01T06:18:49.008Z,1.63
2019-06-01T06:21:51.273Z,1.70
2019-06-01T06:24:53.499Z,1.63
2019-06-01T06:27:55.746Z,1.40
2019-06-01T06:30:58.000Z,1.80
2019-06-01T06:34:00.270Z,1.50
2019-06-01T06:37:02.521Z,1.73
2019-06-01T06:40:05.078Z,1.77
2019-06-01T06:43:19.171Z,1.73
2019-06-01T06:46:09.740Z,1.50
2019-06-01T06:49:11.992Z,1.43
2019-06-01T06:52:15.182Z,1.57
2019-06-01T06:55:17.712Z,1.63
2019-06-01T06:58:18.970Z,1.50
2019-06-01T07:01:20.982Z,1.80
2019-06-01T07:04:23.309Z,1.60
2019-06-01T07:07:25.792Z,1.40
2019-06-01T07:10:28.328Z,1.50
2019-06-01T07:13:30.027Z,1.60
2019-06-01T07:16:32.255Z,1.57
2019-06-01T07:19:34.511Z,1.27
2019-06-01T07:22:36.723Z,1.30
2019-06-01T07:25:38.947Z,1.60
2019-06-01T07:28:44.456Z,1.60
2019-06-01T07:31:43.384Z,1.57
2019-06-01T07:34:45.672Z,1.70
2019-06-01T07:37:47.921Z,2.00
2019-06-01T07:40:50.181Z,1.60
2019-06-01T07:43:52.395Z,1.40
2019-06-01T07:46:54.616Z,1.30
2019-06-01T07:49:56.827Z,1.40
2019-06-01T07:52:59.110Z,1.40
2019-06-01T07:56:01.316Z,1.50
2019-06-01T07:59:03.572Z,1.47
2019-06-01T08:02:05.845Z,1.30
2019-06-01T08:05:08.098Z,1.10
2019-06-01T08:08:10.369Z,1.30
2019-06-01T08:11:12.603Z,1.20
2019-06-01T08:14:14.828Z,1.30
2019-06-01T08:17:17.105Z,1.17
2019-06-01T08:20:19.387Z,1.40
2019-06-01T08:23:21.879Z,1.40
2019-06-01T08:26:24.419Z,1.60
2019-06-01T08:29:26.659Z,1.27
2019-06-01T08:32:28.713Z,1.60
2019-06-01T08:35:31.179Z,1.43
2019-06-01T08:38:33.817Z,1.60
2019-06-01T08:41:35.201Z,1.57
2019-06-01T08:44:37.427Z,1.50
2019-06-01T08:47:39.652Z,1.40
2019-06-01T08:50:45.781Z,1.43
2019-06-01T08:53:44.133Z,1.40
2019-06-01T08:56:46.401Z,1.53
2019-06-01T08:59:48.650Z,1.50
2019-06-01T09:02:50.880Z,1.50
2019-06-01T09:05:53.104Z,1.67
2019-06-01T09:08:55.433Z,1.30
2019-06-01T09:11:57.699Z,1.40
2019-06-01T09:14:59.943Z,1.30
2019-06-01T09:18:02.182Z,1.60
2019-06-01T09:21:04.451Z,1.47
2019-06-01T09:24:06.695Z,1.40
2019-06-01T09:27:08.955Z,1.33
2019-06-01T09:30:11.253Z,1.73
2019-06-01T09:33:13.503Z,1.40
2019-06-01T09:36:15.814Z,1.80
2019-06-01T09:39:18.092Z,1.50
2019-06-01T09:42:20.378Z,1.20
2019-06-01T09:45:22.684Z,1.40
2019-06-01T09:48:24.949Z,1.50
2019-06-01T09:51:27.417Z,1.50
2019-06-01T09:54:30.870Z,1.50
2019-06-01T09:57:31.981Z,1.40
2019-06-01T10:00:34.870Z,1.30
2019-06-01T10:03:36.545Z,1.30
2019-06-01T10:06:38.769Z,1.30
2019-06-01T10:09:42.085Z,1.60
2019-06-01T10:12:43.199Z,1.60
2019-06-01T10:15:45.431Z,1.30
2019-06-01T10:18:47.722Z,1.50
2019-06-01T10:21:49.967Z,1.67
2019-06-01T10:24:52.244Z,1.67
2019-06-01T10:27:54.525Z,1.50
2019-06-01T10:30:56.810Z,1.43
2019-06-01T10:33:59.219Z,1.50
2019-06-01T10:37:01.462Z,1.40
2019-06-01T10:40:04.127Z,1.73
2019-06-01T10:43:06.411Z,1.43
2019-06-01T10:46:08.636Z,1.60
2019-06-01T10:49:10.883Z,1.70
2019-06-01T10:52:13.109Z,1.43
2019-06-01T10:55:15.340Z,1.53
2019-06-01T10:58:17.547Z,1.30
2019-06-01T11:01:19.807Z,1.40
2019-06-01T11:04:22.071Z,1.50
2019-06-01T11:07:24.324Z,1.53
2019-06-01T11:10:26.634Z,1.50
2019-06-01T11:13:28.908Z,1.30
2019-06-01T11:16:31.112Z,1.40
2019-06-01T11:19:33.328Z,1.40
2019-06-01T11:22:35.704Z,1.30
2019-06-01T11:25:37.851Z,1.50
2019-06-01T11:28:40.185Z,4.47
2019-06-01T11:31:42.392Z,1.90
2019-06-01T11:34:44.667Z,2.37
2019-06-01T11:37:46.911Z,1.50
2019-06-01T11:42:13.749Z,1.60
2019-06-01T11:45:16.089Z,1.50
2019-06-01T11:48:18.297Z,1.57
2019-06-01T11:51:20.565Z,1.80
2019-06-01T11:54:22.767Z,1.60
2019-06-01T11:57:25.003Z,1.60
2019-06-01T12:00:27.310Z,1.70
2019-06-01T12:03:29.567Z,1.77
2019-06-01T12:06:31.811Z,1.77
2019-06-01T12:09:34.063Z,1.40
2019-06-01T12:12:36.277Z,1.50
2019-06-01T12:15:38.552Z,1.50
2019-06-01T12:18:40.795Z,1.50
2019-06-01T12:21:43.089Z,1.83
2019-06-01T12:24:45.241Z,1.60
2019-06-01T12:27:48.323Z,1.67
2019-06-01T12:30:49.811Z,1.50
2019-06-01T12:33:52.089Z,1.60
2019-06-01T12:36:54.337Z,1.53
2019-06-01T12:39:56.564Z,1.40
2019-06-01T12:42:58.800Z,1.40
2019-06-01T12:46:07.121Z,1.40
2019-06-01T12:49:03.326Z,1.77
2019-06-01T12:52:05.608Z,1.40
2019-06-01T12:55:07.917Z,1.50
2019-06-01T12:58:10.184Z,1.63
2019-06-01T13:01:12.481Z,1.50
2019-06-01T13:04:14.739Z,1.40
2019-06-01T13:07:17.008Z,1.60
2019-06-01T13:10:19.359Z,1.73
2019-06-01T13:13:21.575Z,1.70
2019-06-01T13:16:23.857Z,1.50
2019-06-01T13:19:26.082Z,1.70
2019-06-01T13:22:28.316Z,1.60
2019-06-01T13:25:30.533Z,1.70
2019-06-01T13:28:38.156Z,2.13
2019-06-01T13:31:35.021Z,1.63
2019-06-01T13:34:37.259Z,1.77
2019-06-01T13:37:39.478Z,1.97
2019-06-01T13:40:42.816Z,1.73
2019-06-01T13:43:45.189Z,1.80
2019-06-01T13:46:47.200Z,1.77
2019-06-01T13:49:50.025Z,2.00
2019-06-01T13:52:52.062Z,1.93
2019-06-01T13:55:53.076Z,2.30
2019-06-01T13:58:55.344Z,1.90
2019-06-01T14:01:57.610Z,1.90
2019-06-01T14:04:59.904Z,1.83
2019-06-01T14:08:02.154Z,2.00
2019-06-01T14:11:04.399Z,2.00
2019-06-01T14:14:06.688Z,1.93
2019-06-01T14:17:08.939Z,2.17
2019-06-01T14:20:11.240Z,1.90
2019-06-01T14:23:13.471Z,2.00
2019-06-01T14:26:15.777Z,2.00
2019-06-01T14:29:18.030Z,2.20
2019-06-01T14:32:20.249Z,2.00
2019-06-01T14:35:22.512Z,1.90
2019-06-01T14:38:24.782Z,2.10
2019-06-01T14:41:27.035Z,2.30
2019-06-01T14:44:29.269Z,2.00
2019-06-01T14:47:31.522Z,1.97
2019-06-01T14:50:33.793Z,2.10
2019-06-01T14:53:36.012Z,2.20
2019-06-01T14:56:38.266Z,1.90
2019-06-01T14:59:40.487Z,2.20
2019-06-01T15:02:42.730Z,2.10
2019-06-01T15:05:45.019Z,2.23
2019-06-01T15:09:08.737Z,2.40
2019-06-01T15:11:50.602Z,2.17
2019-06-01T15:14:52.922Z,2.20
2019-06-01T15:17:55.427Z,1.97
2019-06-01T15:20:56.380Z,2.10
2019-06-01T15:23:58.794Z,2.30
2019-06-01T15:27:00.951Z,2.07
2019-06-01T15:30:03.498Z,2.50
2019-06-01T15:33:05.759Z,2.40
2019-06-01T15:36:07.991Z,2.20
2019-06-01T15:39:24.147Z,2.20
2019-06-01T15:42:12.511Z,2.17
2019-06-01T15:45:15.186Z,2.33
2019-06-01T15:48:17.473Z,2.40
2019-06-01T15:51:19.695Z,2.30
2019-06-01T15:54:21.951Z,2.43
2019-06-01T15:57:24.213Z,1.90
2019-06-01T16:00:26.484Z,2.23
2019-06-01T16:03:28.731Z,2.37
2019-06-01T16:06:30.968Z,2.33
2019-06-01T16:09:42.647Z,2.43
2019-06-01T16:12:35.512Z,2.20
2019-06-01T16:15:37.783Z,2.10
2019-06-01T16:18:40.052Z,2.30
2019-06-01T16:21:42.326Z,2.10
2019-06-01T16:24:44.552Z,2.27
2019-06-01T16:27:46.842Z,2.00
2019-06-01T16:30:49.400Z,2.23
2019-06-01T16:33:51.651Z,2.30
2019-06-01T16:36:54.810Z,2.40
2019-06-01T16:40:02.555Z,2.20
2019-06-01T16:42:59.353Z,2.07
2019-06-01T16:46:02.124Z,2.10
2019-06-01T16:49:03.683Z,2.20
2019-06-01T16:52:05.425Z,2.27
2019-06-01T16:55:07.798Z,2.10
2019-06-01T16:58:10.020Z,2.40
2019-06-01T17:01:12.306Z,2.03
2019-06-01T17:04:14.575Z,2.13
2019-06-01T17:07:16.810Z,2.50
2019-06-01T17:10:26.200Z,2.10
2019-06-01T17:13:21.314Z,2.13
2019-06-01T17:16:23.539Z,1.83
2019-06-01T17:19:25.803Z,3.17
2019-06-01T17:22:28.072Z,2.00
2019-06-01T17:25:30.276Z,2.10
2019-06-01T17:28:32.530Z,2.03
2019-06-01T17:31:34.759Z,2.00
2019-06-01T17:34:37.007Z,1.80
2019-06-01T17:37:39.260Z,2.20
2019-06-01T17:40:43.238Z,2.00
2019-06-01T17:43:43.772Z,2.00
2019-06-01T17:46:53.467Z,1.87
2019-06-01T17:49:48.303Z,1.70
2019-06-01T17:52:50.540Z,1.80
2019-06-01T17:55:52.855Z,1.90
2019-06-01T17:58:55.085Z,2.00
2019-06-01T18:01:57.380Z,1.77
2019-06-01T18:04:59.685Z,1.90
2019-06-01T18:08:01.986Z,1.87
2019-06-01T18:11:04.234Z,1.80
2019-06-01T18:14:06.487Z,1.80
2019-06-01T18:17:08.750Z,1.80
2019-06-01T18:20:11.076Z,1.70
2019-06-01T18:23:13.537Z,1.83
2019-06-01T18:26:15.644Z,1.90
2019-06-01T18:29:17.918Z,1.60
2019-06-01T18:32:20.169Z,1.97
2019-06-01T18:35:22.427Z,1.87
2019-06-01T18:38:24.692Z,1.80
2019-06-01T18:41:26.955Z,1.70
2019-06-01T18:44:29.219Z,1.80
2019-06-01T18:47:32.699Z,1.70
2019-06-01T18:50:33.953Z,1.70
2019-06-01T18:53:36.175Z,1.70
2019-06-01T18:56:38.437Z,2.00
2019-06-01T18:59:40.731Z,2.20
2019-06-01T19:02:42.981Z,1.90
2019-06-01T19:05:45.272Z,2.30
2019-06-01T19:08:47.515Z,1.93
2019-06-01T19:11:49.775Z,2.40
2019-06-01T19:14:52.053Z,2.00
2019-06-01T19:17:54.268Z,2.27
2019-06-01T19:20:56.499Z,2.20
2019-06-01T19:23:58.735Z,2.53
2019-06-01T19:27:00.984Z,2.57
2019-06-01T19:30:03.944Z,3.00
2019-06-01T19:33:07.156Z,2.70
2019-06-01T19:36:09.392Z,3.13
2019-06-01T19:39:11.669Z,2.70
2019-06-01T19:42:13.930Z,2.77
2019-06-01T19:45:27.532Z,2.57
2019-06-01T19:48:18.967Z,2.40
2019-06-01T19:51:20.897Z,2.90
2019-06-01T19:54:23.115Z,2.90
2019-06-01T19:57:25.399Z,3.40
2019-06-01T20:00:27.647Z,3.17
2019-06-01T20:03:29.857Z,3.37
2019-06-01T20:06:32.091Z,3.53
2019-06-01T20:09:34.378Z,3.90
2019-06-01T20:12:36.623Z,4.53
2019-06-01T20:15:38.892Z,4.50
2019-06-01T20:18:41.152Z,4.23
2019-06-01T20:21:43.416Z,4.10
2019-06-01T20:24:45.695Z,4.37
2019-06-01T20:27:50.930Z,5.03
2019-06-01T20:30:53.166Z,4.47
2019-06-01T20:33:56.483Z,4.73
2019-06-01T20:36:57.699Z,4.40
2019-06-01T20:39:59.968Z,4.50
2019-06-01T20:43:02.231Z,4.73
2019-06-01T20:46:04.558Z,4.80
2019-06-01T20:49:06.798Z,5.23
2019-06-01T20:52:09.058Z,5.17
2019-06-01T20:55:11.376Z,5.30
2019-06-01T20:58:13.849Z,5.00
2019-06-01T21:01:15.956Z,5.50
2019-06-01T21:04:18.274Z,5.30
2019-06-01T21:07:20.505Z,5.93
2019-06-01T21:10:24.112Z,5.60
2019-06-01T21:13:25.129Z,5.67
2019-06-01T21:16:27.395Z,5.90
2019-06-01T21:19:29.633Z,6.07
2019-06-01T21:22:31.913Z,5.90
2019-06-01T21:25:34.162Z,5.50
2019-06-01T21:28:36.407Z,5.83
2019-06-01T21:31:38.631Z,5.53
2019-06-01T21:34:40.859Z,5.93
2019-06-01T21:37:43.149Z,6.17
2019-06-01T21:40:45.413Z,6.67
2019-06-01T21:43:47.651Z,5.83
2019-06-01T21:46:50.098Z,6.20
2019-06-01T21:49:52.378Z,6.60
2019-06-01T21:52:54.620Z,7.07
2019-06-01T21:55:56.818Z,7.37
2019-06-01T21:58:59.171Z,7.50
2019-06-01T22:02:01.636Z,7.20
2019-06-01T22:05:04.679Z,7.60
2019-06-01T22:08:07.043Z,7.20
2019-06-01T22:11:09.465Z,7.50
2019-06-01T22:14:11.978Z,6.30
2019-06-01T22:17:14.376Z,6.50
2019-06-01T22:20:17.808Z,5.87
2019-06-01T22:23:19.745Z,6.77
2019-06-01T22:26:22.021Z,6.47
2019-06-01T22:29:24.417Z,7.60
2019-06-01T22:32:29.539Z,6.47
2019-06-01T22:35:28.845Z,6.73
2019-06-01T22:38:31.035Z,6.43
2019-06-01T22:41:33.348Z,6.67
2019-06-01T22:44:35.640Z,6.77
2019-06-01T22:47:38.097Z,6.87
2019-06-01T22:50:40.424Z,6.70
2019-06-01T22:53:42.875Z,6.53
2019-06-01T22:56:45.283Z,6.60
2019-06-01T22:59:47.706Z,6.90
2019-06-01T23:02:50.112Z,6.30
2019-06-01T23:05:52.586Z,7.10
2019-06-01T23:08:55.075Z,7.23
2019-06-01T23:11:57.488Z,6.67
2019-06-01T23:14:59.885Z,7.40
2019-06-01T23:18:02.313Z,7.40
2019-06-01T23:21:04.808Z,7.40
2019-06-01T23:24:07.221Z,7.33
2019-06-01T23:27:09.597Z,6.97
2019-06-01T23:30:12.019Z,7.37
2019-06-01T23:33:14.414Z,6.73
2019-06-01T23:36:16.984Z,6.50
2019-06-01T23:39:19.339Z,7.07
2019-06-01T23:42:22.537Z,6.50
2019-06-01T23:45:24.634Z,6.63
2019-06-01T23:48:27.209Z,6.83
2019-06-01T23:51:29.583Z,7.07
2019-06-01T23:54:32.445Z,6.77
2019-06-01T23:57:34.267Z,6.50
